Portada
METAR-TAF:

METAR-TAF

Aeroports :

Tulsa, Oklahoma, Estats Units d'Amèrica

latitud: 36-11-51N, longitud: 095-53-11W, altitud: 206 m

Observació

L'informe es va fer fa 45 minuts, a les 07:53 UTC
Vent 7 kt del Sud
Temperatura 22°C
Humitat 73%
Pressió 1018 hPa
Visibilitat: 16.1 km
Núvols disperses a una alçada de 25000 ft

METAR: KTUL 020753Z 17007KT 10SM SCT250 22/17 A3005 RMK AO2 SLP169 T02170172

Hora: 03:38 (08:38 UTC)

Pronòstic

L'informe es va fer fa 3 hores i 18 minuts, a les 05:20 UTC
Pronòstic vàlid del 02 a les 06 UTC al 03 a les 06 UTC
Vent 4 kt del Sud/Sud-Est
Visibilitat: 10 km
Núvols disperses a una alçada de 25000 ft
A partir de les 02 a les 1500 UTC
Vent 10 kt del Sud
Visibilitat: 10 km
Núvols disperses a una alçada de 5000 ft
Cel ennuvolat a una alçada de 25000 ft

TAF: KTUL 020520Z 0206/0306 16004KT P6SM SCT250 FM021500 19010KT P6SM SCT050 BKN250

Observacions i pronòstics meteorològics de més de 4000 aeroports (METAR i TAF).

Les estacions disponibles són els punts grocs i vermells al mapa.

Posi el ratolí al punt desitjat per veure el nom de l'estació.

Feu clic per veure les observacions i els pronòstics meteorològics.

Per canviar el mapa: feu clic els botons verds amb una creu de color negre per apropar; al botó verd amb un guió per allunyar la imatge; o en les fletxes verdes per a mapes adjacents.


METAR-TAF: